sensor_id;sensor_type;location;lat;lon;timestamp;P1;durP1;ratioP1;P2;durP2;ratioP2
67904;SDS011;54709;43.614;1.576;2023-04-24T00:02:09;6.57;;;2.30;;
67904;SDS011;54709;43.614;1.576;2023-04-24T00:04:36;8.05;;;2.35;;
67904;SDS011;54709;43.614;1.576;2023-04-24T00:07:05;3.25;;;2.08;;
67904;SDS011;54709;43.614;1.576;2023-04-24T00:09:31;8.82;;;2.03;;
67904;SDS011;54709;43.614;1.576;2023-04-24T00:11:57;3.08;;;2.00;;
67904;SDS011;54709;43.614;1.576;2023-04-24T00:14:23;3.33;;;1.80;;
67904;SDS011;54709;43.614;1.576;2023-04-24T00:16:48;5.20;;;2.28;;
67904;SDS011;54709;43.614;1.576;2023-04-24T00:19:14;8.10;;;2.05;;
67904;SDS011;54709;43.614;1.576;2023-04-24T00:21:39;4.68;;;2.10;;
67904;SDS011;54709;43.614;1.576;2023-04-24T00:24:06;6.65;;;1.80;;
67904;SDS011;54709;43.614;1.576;2023-04-24T00:26:33;6.10;;;2.20;;
67904;SDS011;54709;43.614;1.576;2023-04-24T00:28:59;5.70;;;1.80;;
67904;SDS011;54709;43.614;1.576;2023-04-24T00:31:24;6.55;;;2.10;;
67904;SDS011;54709;43.614;1.576;2023-04-24T00:33:50;7.43;;;2.20;;
67904;SDS011;54709;43.614;1.576;2023-04-24T00:36:15;3.40;;;1.65;;
67904;SDS011;54709;43.614;1.576;2023-04-24T00:38:41;3.83;;;1.75;;
67904;SDS011;54709;43.614;1.576;2023-04-24T00:41:06;5.70;;;2.13;;
67904;SDS011;54709;43.614;1.576;2023-04-24T00:43:32;5.22;;;2.10;;
67904;SDS011;54709;43.614;1.576;2023-04-24T00:45:57;3.17;;;1.90;;
67904;SDS011;54709;43.614;1.576;2023-04-24T00:48:24;5.43;;;1.95;;
67904;SDS011;54709;43.614;1.576;2023-04-24T00:50:50;3.45;;;1.60;;
67904;SDS011;54709;43.614;1.576;2023-04-24T00:53:15;6.30;;;2.20;;
67904;SDS011;54709;43.614;1.576;2023-04-24T00:55:40;5.07;;;1.95;;
67904;SDS011;54709;43.614;1.576;2023-04-24T00:58:06;5.22;;;1.92;;
67904;SDS011;54709;43.614;1.576;2023-04-24T01:00:31;6.05;;;2.30;;
67904;SDS011;54709;43.614;1.576;2023-04-24T01:02:57;5.78;;;2.20;;
67904;SDS011;54709;43.614;1.576;2023-04-24T01:05:24;4.22;;;1.55;;
67904;SDS011;54709;43.614;1.576;2023-04-24T01:07:50;5.85;;;1.80;;
67904;SDS011;54709;43.614;1.576;2023-04-24T01:10:16;4.15;;;2.17;;
67904;SDS011;54709;43.614;1.576;2023-04-24T01:12:42;5.97;;;2.20;;
67904;SDS011;54709;43.614;1.576;2023-04-24T01:15:08;3.92;;;1.90;;
67904;SDS011;54709;43.614;1.576;2023-04-24T01:17:34;6.68;;;2.00;;
67904;SDS011;54709;43.614;1.576;2023-04-24T01:20:00;4.55;;;2.15;;
67904;SDS011;54709;43.614;1.576;2023-04-24T01:22:26;4.55;;;2.20;;
67904;SDS011;54709;43.614;1.576;2023-04-24T01:24:52;6.18;;;2.20;;
67904;SDS011;54709;43.614;1.576;2023-04-24T01:27:18;6.20;;;2.20;;
67904;SDS011;54709;43.614;1.576;2023-04-24T01:29:44;5.75;;;2.20;;
67904;SDS011;54709;43.614;1.576;2023-04-24T01:32:09;6.68;;;1.73;;
67904;SDS011;54709;43.614;1.576;2023-04-24T01:34:35;5.40;;;2.50;;
67904;SDS011;54709;43.614;1.576;2023-04-24T01:37:01;9.80;;;2.92;;
67904;SDS011;54709;43.614;1.576;2023-04-24T01:39:26;8.95;;;3.10;;
67904;SDS011;54709;43.614;1.576;2023-04-24T01:41:53;5.97;;;2.60;;
67904;SDS011;54709;43.614;1.576;2023-04-24T01:44:19;6.38;;;3.15;;
67904;SDS011;54709;43.614;1.576;2023-04-24T01:46:45;8.18;;;2.67;;
67904;SDS011;54709;43.614;1.576;2023-04-24T01:49:10;5.68;;;2.70;;
67904;SDS011;54709;43.614;1.576;2023-04-24T01:51:36;5.55;;;2.63;;
67904;SDS011;54709;43.614;1.576;2023-04-24T01:54:01;9.45;;;3.20;;
67904;SDS011;54709;43.614;1.576;2023-04-24T01:56:28;7.38;;;2.47;;
67904;SDS011;54709;43.614;1.576;2023-04-24T01:58:55;5.90;;;2.90;;
67904;SDS011;54709;43.614;1.576;2023-04-24T02:01:21;9.02;;;2.40;;
67904;SDS011;54709;43.614;1.576;2023-04-24T02:03:48;7.35;;;2.60;;
67904;SDS011;54709;43.614;1.576;2023-04-24T02:06:14;6.78;;;2.55;;
67904;SDS011;54709;43.614;1.576;2023-04-24T02:08:39;5.68;;;2.30;;
67904;SDS011;54709;43.614;1.576;2023-04-24T02:11:05;8.75;;;2.22;;
67904;SDS011;54709;43.614;1.576;2023-04-24T02:13:30;4.70;;;2.13;;
67904;SDS011;54709;43.614;1.576;2023-04-24T02:15:57;7.82;;;2.28;;
67904;SDS011;54709;43.614;1.576;2023-04-24T02:18:23;4.80;;;1.95;;
67904;SDS011;54709;43.614;1.576;2023-04-24T02:20:48;11.70;;;2.40;;
67904;SDS011;54709;43.614;1.576;2023-04-24T02:23:14;12.45;;;2.50;;
67904;SDS011;54709;43.614;1.576;2023-04-24T02:25:40;7.15;;;2.20;;
67904;SDS011;54709;43.614;1.576;2023-04-24T02:28:05;7.85;;;2.42;;
67904;SDS011;54709;43.614;1.576;2023-04-24T02:30:31;6.57;;;2.45;;
67904;SDS011;54709;43.614;1.576;2023-04-24T02:32:56;5.90;;;2.20;;
67904;SDS011;54709;43.614;1.576;2023-04-24T02:35:22;8.02;;;2.30;;
67904;SDS011;54709;43.614;1.576;2023-04-24T02:37:47;8.52;;;2.60;;
67904;SDS011;54709;43.614;1.576;2023-04-24T02:40:12;7.15;;;2.47;;
67904;SDS011;54709;43.614;1.576;2023-04-24T02:42:38;7.55;;;2.30;;
67904;SDS011;54709;43.614;1.576;2023-04-24T02:45:03;7.75;;;2.40;;
67904;SDS011;54709;43.614;1.576;2023-04-24T02:47:30;7.63;;;2.50;;
67904;SDS011;54709;43.614;1.576;2023-04-24T02:49:55;6.95;;;2.40;;
67904;SDS011;54709;43.614;1.576;2023-04-24T02:52:20;6.32;;;2.40;;
67904;SDS011;54709;43.614;1.576;2023-04-24T02:54:46;7.30;;;2.00;;
67904;SDS011;54709;43.614;1.576;2023-04-24T02:57:11;6.90;;;1.98;;
67904;SDS011;54709;43.614;1.576;2023-04-24T02:59:36;7.18;;;2.10;;
67904;SDS011;54709;43.614;1.576;2023-04-24T03:02:02;5.70;;;2.15;;
67904;SDS011;54709;43.614;1.576;2023-04-24T03:04:27;6.95;;;2.03;;
67904;SDS011;54709;43.614;1.576;2023-04-24T03:06:53;10.50;;;2.72;;
67904;SDS011;54709;43.614;1.576;2023-04-24T03:09:20;7.40;;;2.20;;
67904;SDS011;54709;43.614;1.576;2023-04-24T03:11:45;5.75;;;2.05;;
67904;SDS011;54709;43.614;1.576;2023-04-24T03:14:11;6.57;;;1.90;;
67904;SDS011;54709;43.614;1.576;2023-04-24T03:16:36;8.65;;;2.30;;
67904;SDS011;54709;43.614;1.576;2023-04-24T03:19:02;7.35;;;2.30;;
67904;SDS011;54709;43.614;1.576;2023-04-24T03:21:27;10.35;;;2.40;;
67904;SDS011;54709;43.614;1.576;2023-04-24T03:23:52;9.18;;;2.20;;
67904;SDS011;54709;43.614;1.576;2023-04-24T03:26:18;9.98;;;2.47;;
67904;SDS011;54709;43.614;1.576;2023-04-24T03:28:43;7.45;;;2.42;;
67904;SDS011;54709;43.614;1.576;2023-04-24T03:31:09;8.43;;;2.15;;
67904;SDS011;54709;43.614;1.576;2023-04-24T03:33:34;7.57;;;2.53;;
67904;SDS011;54709;43.614;1.576;2023-04-24T03:36:01;7.60;;;2.30;;
67904;SDS011;54709;43.614;1.576;2023-04-24T03:38:26;4.40;;;2.00;;
67904;SDS011;54709;43.614;1.576;2023-04-24T03:40:51;7.38;;;2.05;;
67904;SDS011;54709;43.614;1.576;2023-04-24T03:43:17;5.93;;;2.30;;
67904;SDS011;54709;43.614;1.576;2023-04-24T03:45:42;8.18;;;2.15;;
67904;SDS011;54709;43.614;1.576;2023-04-24T03:48:07;6.28;;;2.08;;
67904;SDS011;54709;43.614;1.576;2023-04-24T03:50:33;7.90;;;2.28;;
67904;SDS011;54709;43.614;1.576;2023-04-24T03:52:58;6.70;;;2.03;;
67904;SDS011;54709;43.614;1.576;2023-04-24T03:55:24;9.05;;;2.13;;
67904;SDS011;54709;43.614;1.576;2023-04-24T03:57:49;7.05;;;2.13;;
67904;SDS011;54709;43.614;1.576;2023-04-24T04:00:15;8.38;;;2.08;;
67904;SDS011;54709;43.614;1.576;2023-04-24T04:02:40;8.23;;;2.25;;
67904;SDS011;54709;43.614;1.576;2023-04-24T04:05:06;10.38;;;2.15;;
67904;SDS011;54709;43.614;1.576;2023-04-24T04:07:33;7.97;;;1.80;;
67904;SDS011;54709;43.614;1.576;2023-04-24T04:09:58;7.15;;;1.85;;
67904;SDS011;54709;43.614;1.576;2023-04-24T04:12:23;8.18;;;1.85;;
67904;SDS011;54709;43.614;1.576;2023-04-24T04:14:49;3.97;;;1.90;;
67904;SDS011;54709;43.614;1.576;2023-04-24T04:17:15;5.18;;;2.17;;
67904;SDS011;54709;43.614;1.576;2023-04-24T04:19:41;4.80;;;2.10;;
67904;SDS011;54709;43.614;1.576;2023-04-24T04:22:06;7.07;;;1.85;;
67904;SDS011;54709;43.614;1.576;2023-04-24T04:24:33;5.38;;;2.00;;
67904;SDS011;54709;43.614;1.576;2023-04-24T04:26:58;5.03;;;1.75;;
67904;SDS011;54709;43.614;1.576;2023-04-24T04:29:25;8.05;;;2.05;;
67904;SDS011;54709;43.614;1.576;2023-04-24T04:31:50;6.38;;;1.98;;
67904;SDS011;54709;43.614;1.576;2023-04-24T04:34:16;9.38;;;1.90;;
67904;SDS011;54709;43.614;1.576;2023-04-24T04:36:41;7.30;;;2.20;;
67904;SDS011;54709;43.614;1.576;2023-04-24T04:39:08;6.55;;;2.15;;
67904;SDS011;54709;43.614;1.576;2023-04-24T04:41:33;8.88;;;2.10;;
67904;SDS011;54709;43.614;1.576;2023-04-24T04:44:00;7.10;;;2.20;;
67904;SDS011;54709;43.614;1.576;2023-04-24T04:46:26;5.05;;;2.05;;
67904;SDS011;54709;43.614;1.576;2023-04-24T04:48:52;7.40;;;2.20;;
67904;SDS011;54709;43.614;1.576;2023-04-24T04:51:18;5.80;;;1.77;;
67904;SDS011;54709;43.614;1.576;2023-04-24T04:53:43;7.68;;;2.22;;
67904;SDS011;54709;43.614;1.576;2023-04-24T04:56:09;9.82;;;2.15;;
67904;SDS011;54709;43.614;1.576;2023-04-24T04:58:35;8.15;;;2.08;;
67904;SDS011;54709;43.614;1.576;2023-04-24T05:01:00;6.85;;;2.05;;
67904;SDS011;54709;43.614;1.576;2023-04-24T05:03:25;7.68;;;2.10;;
67904;SDS011;54709;43.614;1.576;2023-04-24T05:05:51;8.98;;;2.47;;
67904;SDS011;54709;43.614;1.576;2023-04-24T05:08:16;4.88;;;1.75;;
67904;SDS011;54709;43.614;1.576;2023-04-24T05:10:42;8.98;;;2.00;;
67904;SDS011;54709;43.614;1.576;2023-04-24T05:13:07;10.23;;;1.98;;
67904;SDS011;54709;43.614;1.576;2023-04-24T05:15:32;7.72;;;1.80;;
67904;SDS011;54709;43.614;1.576;2023-04-24T05:17:58;8.50;;;2.20;;
67904;SDS011;54709;43.614;1.576;2023-04-24T05:20:23;8.82;;;2.22;;
67904;SDS011;54709;43.614;1.576;2023-04-24T05:22:49;7.50;;;2.45;;
67904;SDS011;54709;43.614;1.576;2023-04-24T05:25:14;8.75;;;2.10;;
67904;SDS011;54709;43.614;1.576;2023-04-24T05:27:39;13.50;;;4.15;;
67904;SDS011;54709;43.614;1.576;2023-04-24T05:30:05;75.50;;;55.63;;
67904;SDS011;54709;43.614;1.576;2023-04-24T05:32:31;56.22;;;40.17;;
67904;SDS011;54709;43.614;1.576;2023-04-24T05:34:57;17.75;;;10.18;;
67904;SDS011;54709;43.614;1.576;2023-04-24T05:37:22;14.10;;;6.35;;
67904;SDS011;54709;43.614;1.576;2023-04-24T05:39:47;9.63;;;4.70;;
67904;SDS011;54709;43.614;1.576;2023-04-24T05:42:13;9.93;;;3.83;;
67904;SDS011;54709;43.614;1.576;2023-04-24T05:44:38;12.07;;;3.67;;
67904;SDS011;54709;43.614;1.576;2023-04-24T05:47:03;9.35;;;3.00;;
67904;SDS011;54709;43.614;1.576;2023-04-24T05:49:29;18.48;;;9.65;;
67904;SDS011;54709;43.614;1.576;2023-04-24T05:51:54;12.82;;;6.28;;
67904;SDS011;54709;43.614;1.576;2023-04-24T05:54:20;13.65;;;4.75;;
67904;SDS011;54709;43.614;1.576;2023-04-24T05:56:45;11.20;;;6.00;;
67904;SDS011;54709;43.614;1.576;2023-04-24T05:59:11;25.83;;;16.83;;
67904;SDS011;54709;43.614;1.576;2023-04-24T06:01:36;16.40;;;4.03;;
67904;SDS011;54709;43.614;1.576;2023-04-24T06:04:02;12.32;;;3.90;;
67904;SDS011;54709;43.614;1.576;2023-04-24T06:06:28;12.02;;;4.10;;
67904;SDS011;54709;43.614;1.576;2023-04-24T06:08:54;14.30;;;4.65;;
67904;SDS011;54709;43.614;1.576;2023-04-24T06:11:19;14.02;;;4.50;;
67904;SDS011;54709;43.614;1.576;2023-04-24T06:13:44;15.52;;;3.95;;
67904;SDS011;54709;43.614;1.576;2023-04-24T06:16:10;13.90;;;4.20;;
67904;SDS011;54709;43.614;1.576;2023-04-24T06:18:36;9.38;;;3.53;;
67904;SDS011;54709;43.614;1.576;2023-04-24T06:21:01;10.80;;;3.95;;
67904;SDS011;54709;43.614;1.576;2023-04-24T06:23:26;13.07;;;3.83;;
67904;SDS011;54709;43.614;1.576;2023-04-24T06:25:52;13.38;;;3.33;;
67904;SDS011;54709;43.614;1.576;2023-04-24T06:28:17;10.68;;;3.47;;
67904;SDS011;54709;43.614;1.576;2023-04-24T06:30:43;12.77;;;3.05;;
67904;SDS011;54709;43.614;1.576;2023-04-24T06:33:08;11.73;;;3.50;;
67904;SDS011;54709;43.614;1.576;2023-04-24T06:35:34;10.23;;;3.53;;
67904;SDS011;54709;43.614;1.576;2023-04-24T06:37:59;12.68;;;3.85;;
67904;SDS011;54709;43.614;1.576;2023-04-24T06:40:24;10.40;;;3.70;;
67904;SDS011;54709;43.614;1.576;2023-04-24T06:42:50;9.38;;;3.03;;
67904;SDS011;54709;43.614;1.576;2023-04-24T06:45:15;14.65;;;3.17;;
67904;SDS011;54709;43.614;1.576;2023-04-24T06:47:41;12.73;;;3.17;;
67904;SDS011;54709;43.614;1.576;2023-04-24T06:50:07;11.45;;;2.72;;
67904;SDS011;54709;43.614;1.576;2023-04-24T06:52:32;14.27;;;3.40;;
67904;SDS011;54709;43.614;1.576;2023-04-24T06:55:01;8.13;;;3.65;;
67904;SDS011;54709;43.614;1.576;2023-04-24T06:57:28;14.60;;;3.65;;
67904;SDS011;54709;43.614;1.576;2023-04-24T06:59:53;10.90;;;3.00;;
67904;SDS011;54709;43.614;1.576;2023-04-24T07:02:19;12.23;;;3.72;;
67904;SDS011;54709;43.614;1.576;2023-04-24T07:04:44;12.20;;;3.08;;
67904;SDS011;54709;43.614;1.576;2023-04-24T07:07:13;16.05;;;3.47;;
67904;SDS011;54709;43.614;1.576;2023-04-24T07:09:39;13.32;;;3.20;;
67904;SDS011;54709;43.614;1.576;2023-04-24T07:12:07;16.08;;;3.70;;
67904;SDS011;54709;43.614;1.576;2023-04-24T07:14:36;14.45;;;3.45;;
67904;SDS011;54709;43.614;1.576;2023-04-24T07:17:02;14.63;;;3.60;;
67904;SDS011;54709;43.614;1.576;2023-04-24T07:19:28;12.18;;;3.33;;
67904;SDS011;54709;43.614;1.576;2023-04-24T07:21:54;9.65;;;3.15;;
67904;SDS011;54709;43.614;1.576;2023-04-24T07:24:20;10.20;;;3.40;;
67904;SDS011;54709;43.614;1.576;2023-04-24T07:26:45;14.40;;;3.10;;
67904;SDS011;54709;43.614;1.576;2023-04-24T07:29:11;13.18;;;3.10;;
67904;SDS011;54709;43.614;1.576;2023-04-24T07:31:38;13.10;;;3.70;;
67904;SDS011;54709;43.614;1.576;2023-04-24T07:34:03;11.93;;;3.15;;
67904;SDS011;54709;43.614;1.576;2023-04-24T07:36:29;9.65;;;3.70;;
67904;SDS011;54709;43.614;1.576;2023-04-24T07:38:54;14.40;;;4.10;;
67904;SDS011;54709;43.614;1.576;2023-04-24T07:41:21;10.00;;;2.53;;
67904;SDS011;54709;43.614;1.576;2023-04-24T07:43:46;8.70;;;2.45;;
67904;SDS011;54709;43.614;1.576;2023-04-24T07:46:12;6.60;;;2.25;;
67904;SDS011;54709;43.614;1.576;2023-04-24T07:48:37;11.60;;;2.58;;
67904;SDS011;54709;43.614;1.576;2023-04-24T07:51:03;6.60;;;1.98;;
67904;SDS011;54709;43.614;1.576;2023-04-24T07:53:28;5.72;;;2.00;;
67904;SDS011;54709;43.614;1.576;2023-04-24T07:55:56;8.43;;;2.13;;
67904;SDS011;54709;43.614;1.576;2023-04-24T07:58:21;4.78;;;1.90;;
67904;SDS011;54709;43.614;1.576;2023-04-24T08:00:47;7.03;;;2.08;;
67904;SDS011;54709;43.614;1.576;2023-04-24T08:03:12;3.95;;;1.55;;
67904;SDS011;54709;43.614;1.576;2023-04-24T08:05:38;8.40;;;2.00;;
67904;SDS011;54709;43.614;1.576;2023-04-24T08:08:04;5.80;;;1.83;;
67904;SDS011;54709;43.614;1.576;2023-04-24T08:10:29;4.43;;;1.73;;
67904;SDS011;54709;43.614;1.576;2023-04-24T08:12:55;8.40;;;1.90;;
67904;SDS011;54709;43.614;1.576;2023-04-24T08:15:20;5.82;;;1.58;;
67904;SDS011;54709;43.614;1.576;2023-04-24T08:17:46;8.98;;;1.52;;
67904;SDS011;54709;43.614;1.576;2023-04-24T08:20:11;5.53;;;1.40;;
67904;SDS011;54709;43.614;1.576;2023-04-24T08:22:39;5.35;;;1.40;;
67904;SDS011;54709;43.614;1.576;2023-04-24T08:25:05;7.03;;;1.65;;
67904;SDS011;54709;43.614;1.576;2023-04-24T08:27:31;5.35;;;1.48;;
67904;SDS011;54709;43.614;1.576;2023-04-24T08:29:57;4.05;;;1.40;;
67904;SDS011;54709;43.614;1.576;2023-04-24T08:32:23;5.18;;;1.50;;
67904;SDS011;54709;43.614;1.576;2023-04-24T08:34:49;5.25;;;1.45;;
67904;SDS011;54709;43.614;1.576;2023-04-24T08:37:14;5.88;;;1.40;;
67904;SDS011;54709;43.614;1.576;2023-04-24T08:39:40;7.15;;;1.40;;
67904;SDS011;54709;43.614;1.576;2023-04-24T08:42:05;8.65;;;1.40;;
67904;SDS011;54709;43.614;1.576;2023-04-24T08:44:33;4.40;;;1.30;;
67904;SDS011;54709;43.614;1.576;2023-04-24T08:46:58;3.92;;;1.10;;
67904;SDS011;54709;43.614;1.576;2023-04-24T08:49:24;4.78;;;1.25;;
67904;SDS011;54709;43.614;1.576;2023-04-24T08:51:50;5.18;;;1.15;;
67904;SDS011;54709;43.614;1.576;2023-04-24T08:54:17;6.70;;;1.27;;
67904;SDS011;54709;43.614;1.576;2023-04-24T08:56:43;5.85;;;1.10;;
67904;SDS011;54709;43.614;1.576;2023-04-24T08:59:09;6.38;;;1.33;;
67904;SDS011;54709;43.614;1.576;2023-04-24T09:01:35;7.78;;;1.23;;
67904;SDS011;54709;43.614;1.576;2023-04-24T09:04:02;5.00;;;1.10;;
67904;SDS011;54709;43.614;1.576;2023-04-24T09:06:29;5.00;;;1.17;;
67904;SDS011;54709;43.614;1.576;2023-04-24T09:08:55;5.75;;;1.30;;
67904;SDS011;54709;43.614;1.576;2023-04-24T09:11:22;7.25;;;1.15;;
67904;SDS011;54709;43.614;1.576;2023-04-24T09:13:49;5.88;;;1.45;;
67904;SDS011;54709;43.614;1.576;2023-04-24T09:16:14;7.07;;;1.20;;
67904;SDS011;54709;43.614;1.576;2023-04-24T09:18:40;5.88;;;1.52;;
67904;SDS011;54709;43.614;1.576;2023-04-24T09:21:09;5.13;;;1.13;;
67904;SDS011;54709;43.614;1.576;2023-04-24T09:23:34;6.25;;;1.33;;
67904;SDS011;54709;43.614;1.576;2023-04-24T09:26:01;3.88;;;1.30;;
67904;SDS011;54709;43.614;1.576;2023-04-24T09:28:31;6.15;;;1.30;;
67904;SDS011;54709;43.614;1.576;2023-04-24T09:31:08;10.15;;;1.25;;
67904;SDS011;54709;43.614;1.576;2023-04-24T09:33:36;6.18;;;1.15;;
67904;SDS011;54709;43.614;1.576;2023-04-24T09:36:02;3.95;;;1.10;;
67904;SDS011;54709;43.614;1.576;2023-04-24T09:38:31;3.28;;;1.00;;
67904;SDS011;54709;43.614;1.576;2023-04-24T09:41:05;5.13;;;1.33;;
67904;SDS011;54709;43.614;1.576;2023-04-24T09:43:32;4.53;;;1.05;;
67904;SDS011;54709;43.614;1.576;2023-04-24T09:45:58;5.68;;;1.25;;
67904;SDS011;54709;43.614;1.576;2023-04-24T09:48:31;5.07;;;1.15;;
67904;SDS011;54709;43.614;1.576;2023-04-24T09:50:57;5.47;;;1.10;;
67904;SDS011;54709;43.614;1.576;2023-04-24T09:53:25;5.45;;;1.13;;
67904;SDS011;54709;43.614;1.576;2023-04-24T09:55:51;5.47;;;1.30;;
67904;SDS011;54709;43.614;1.576;2023-04-24T09:58:18;5.25;;;1.20;;
67904;SDS011;54709;43.614;1.576;2023-04-24T10:00:43;4.03;;;1.00;;
67904;SDS011;54709;43.614;1.576;2023-04-24T10:03:10;6.28;;;1.27;;
67904;SDS011;54709;43.614;1.576;2023-04-24T10:05:36;3.80;;;1.00;;
67904;SDS011;54709;43.614;1.576;2023-04-24T10:08:03;4.75;;;1.20;;
67904;SDS011;54709;43.614;1.576;2023-04-24T10:10:33;6.30;;;1.10;;
67904;SDS011;54709;43.614;1.576;2023-04-24T10:15:26;5.28;;;1.30;;
67904;SDS011;54709;43.614;1.576;2023-04-24T10:17:52;4.72;;;1.20;;
67904;SDS011;54709;43.614;1.576;2023-04-24T10:20:21;2.85;;;0.93;;
67904;SDS011;54709;43.614;1.576;2023-04-24T10:22:48;5.35;;;1.63;;
67904;SDS011;54709;43.614;1.576;2023-04-24T10:25:21;3.22;;;0.98;;
67904;SDS011;54709;43.614;1.576;2023-04-24T10:27:49;6.15;;;0.90;;
67904;SDS011;54709;43.614;1.576;2023-04-24T10:30:16;6.10;;;0.80;;
67904;SDS011;54709;43.614;1.576;2023-04-24T10:32:42;3.70;;;1.08;;
67904;SDS011;54709;43.614;1.576;2023-04-24T10:35:08;2.38;;;0.80;;
67904;SDS011;54709;43.614;1.576;2023-04-24T10:37:39;5.03;;;1.10;;
67904;SDS011;54709;43.614;1.576;2023-04-24T10:40:07;3.75;;;0.80;;
67904;SDS011;54709;43.614;1.576;2023-04-24T10:42:35;5.38;;;1.15;;
67904;SDS011;54709;43.614;1.576;2023-04-24T10:45:04;3.78;;;0.90;;
67904;SDS011;54709;43.614;1.576;2023-04-24T10:47:39;6.60;;;1.02;;
67904;SDS011;54709;43.614;1.576;2023-04-24T10:50:14;3.03;;;0.80;;
67904;SDS011;54709;43.614;1.576;2023-04-24T10:52:44;4.75;;;1.10;;
67904;SDS011;54709;43.614;1.576;2023-04-24T10:55:13;3.53;;;1.10;;
67904;SDS011;54709;43.614;1.576;2023-04-24T10:58:01;6.53;;;1.08;;
67904;SDS011;54709;43.614;1.576;2023-04-24T11:00:28;3.38;;;0.88;;
67904;SDS011;54709;43.614;1.576;2023-04-24T11:02:53;2.25;;;0.80;;
67904;SDS011;54709;43.614;1.576;2023-04-24T11:05:20;2.90;;;1.00;;
67904;SDS011;54709;43.614;1.576;2023-04-24T11:10:47;4.15;;;1.10;;
67904;SDS011;54709;43.614;1.576;2023-04-24T11:13:24;2.47;;;0.90;;
67904;SDS011;54709;43.614;1.576;2023-04-24T11:18:38;3.78;;;0.90;;
67904;SDS011;54709;43.614;1.576;2023-04-24T11:21:12;4.65;;;0.90;;
67904;SDS011;54709;43.614;1.576;2023-04-24T11:23:38;2.28;;;0.80;;
67904;SDS011;54709;43.614;1.576;2023-04-24T11:26:10;3.33;;;0.98;;
67904;SDS011;54709;43.614;1.576;2023-04-24T11:28:48;4.78;;;1.30;;
67904;SDS011;54709;43.614;1.576;2023-04-24T11:34:06;2.92;;;1.25;;
67904;SDS011;54709;43.614;1.576;2023-04-24T11:36:44;3.47;;;1.00;;
67904;SDS011;54709;43.614;1.576;2023-04-24T11:39:13;5.13;;;1.30;;
67904;SDS011;54709;43.614;1.576;2023-04-24T11:41:40;3.78;;;0.98;;
67904;SDS011;54709;43.614;1.576;2023-04-24T11:44:06;4.70;;;1.10;;
67904;SDS011;54709;43.614;1.576;2023-04-24T11:46:33;4.28;;;1.00;;
67904;SDS011;54709;43.614;1.576;2023-04-24T11:48:58;4.18;;;0.80;;
67904;SDS011;54709;43.614;1.576;2023-04-24T11:51:25;7.50;;;1.15;;
67904;SDS011;54709;43.614;1.576;2023-04-24T11:53:52;4.35;;;1.10;;
67904;SDS011;54709;43.614;1.576;2023-04-24T11:56:18;4.53;;;1.00;;
67904;SDS011;54709;43.614;1.576;2023-04-24T11:58:44;4.20;;;1.30;;
67904;SDS011;54709;43.614;1.576;2023-04-24T12:01:10;4.78;;;1.02;;
67904;SDS011;54709;43.614;1.576;2023-04-24T12:03:35;3.85;;;1.00;;
67904;SDS011;54709;43.614;1.576;2023-04-24T12:06:07;5.28;;;1.25;;
67904;SDS011;54709;43.614;1.576;2023-04-24T12:08:34;4.72;;;1.30;;
67904;SDS011;54709;43.614;1.576;2023-04-24T12:11:00;4.18;;;1.05;;
67904;SDS011;54709;43.614;1.576;2023-04-24T12:13:26;2.78;;;0.85;;
67904;SDS011;54709;43.614;1.576;2023-04-24T12:15:51;4.95;;;1.10;;
67904;SDS011;54709;43.614;1.576;2023-04-24T12:18:17;3.33;;;1.00;;
67904;SDS011;54709;43.614;1.576;2023-04-24T12:20:43;3.83;;;1.20;;
67904;SDS011;54709;43.614;1.576;2023-04-24T12:23:08;4.10;;;1.85;;
67904;SDS011;54709;43.614;1.576;2023-04-24T12:25:34;6.53;;;1.27;;
67904;SDS011;54709;43.614;1.576;2023-04-24T12:30:28;5.20;;;1.10;;
67904;SDS011;54709;43.614;1.576;2023-04-24T12:32:56;4.32;;;1.30;;
67904;SDS011;54709;43.614;1.576;2023-04-24T12:35:23;4.05;;;1.40;;
67904;SDS011;54709;43.614;1.576;2023-04-24T12:37:50;2.78;;;1.00;;
67904;SDS011;54709;43.614;1.576;2023-04-24T12:40:16;5.22;;;1.35;;
67904;SDS011;54709;43.614;1.576;2023-04-24T12:42:43;7.57;;;1.38;;
67904;SDS011;54709;43.614;1.576;2023-04-24T12:45:10;5.78;;;1.23;;
67904;SDS011;54709;43.614;1.576;2023-04-24T12:47:37;4.35;;;1.10;;
67904;SDS011;54709;43.614;1.576;2023-04-24T12:50:03;5.43;;;1.30;;
67904;SDS011;54709;43.614;1.576;2023-04-24T12:52:29;4.78;;;1.20;;
67904;SDS011;54709;43.614;1.576;2023-04-24T12:54:59;5.57;;;1.20;;
67904;SDS011;54709;43.614;1.576;2023-04-24T12:57:25;5.05;;;1.13;;
67904;SDS011;54709;43.614;1.576;2023-04-24T12:59:54;5.97;;;1.30;;
67904;SDS011;54709;43.614;1.576;2023-04-24T13:02:23;3.50;;;1.02;;
67904;SDS011;54709;43.614;1.576;2023-04-24T13:04:52;3.13;;;1.10;;
67904;SDS011;54709;43.614;1.576;2023-04-24T13:07:19;3.10;;;1.10;;
67904;SDS011;54709;43.614;1.576;2023-04-24T13:09:44;3.60;;;1.00;;
67904;SDS011;54709;43.614;1.576;2023-04-24T13:12:11;5.38;;;0.85;;
67904;SDS011;54709;43.614;1.576;2023-04-24T13:14:37;3.75;;;1.10;;
67904;SDS011;54709;43.614;1.576;2023-04-24T13:17:03;5.50;;;1.13;;
67904;SDS011;54709;43.614;1.576;2023-04-24T13:19:29;8.00;;;1.10;;
67904;SDS011;54709;43.614;1.576;2023-04-24T13:21:55;2.85;;;0.93;;
67904;SDS011;54709;43.614;1.576;2023-04-24T13:24:22;3.88;;;1.10;;
67904;SDS011;54709;43.614;1.576;2023-04-24T13:26:51;5.13;;;1.05;;
67904;SDS011;54709;43.614;1.576;2023-04-24T13:29:19;9.85;;;1.65;;
67904;SDS011;54709;43.614;1.576;2023-04-24T13:31:45;3.75;;;1.23;;
67904;SDS011;54709;43.614;1.576;2023-04-24T13:34:12;4.13;;;1.20;;
67904;SDS011;54709;43.614;1.576;2023-04-24T13:36:38;4.68;;;1.00;;
67904;SDS011;54709;43.614;1.576;2023-04-24T13:39:03;3.28;;;1.17;;
67904;SDS011;54709;43.614;1.576;2023-04-24T13:41:30;4.03;;;1.20;;
67904;SDS011;54709;43.614;1.576;2023-04-24T13:43:56;4.03;;;1.30;;
67904;SDS011;54709;43.614;1.576;2023-04-24T13:46:21;6.05;;;1.35;;
67904;SDS011;54709;43.614;1.576;2023-04-24T13:48:46;5.13;;;1.40;;
67904;SDS011;54709;43.614;1.576;2023-04-24T13:51:12;6.32;;;1.10;;
67904;SDS011;54709;43.614;1.576;2023-04-24T13:53:37;5.38;;;1.13;;
67904;SDS011;54709;43.614;1.576;2023-04-24T13:56:03;4.57;;;1.10;;
67904;SDS011;54709;43.614;1.576;2023-04-24T13:58:30;6.65;;;1.00;;
67904;SDS011;54709;43.614;1.576;2023-04-24T14:00:56;4.53;;;1.40;;
67904;SDS011;54709;43.614;1.576;2023-04-24T14:03:21;6.57;;;1.17;;
67904;SDS011;54709;43.614;1.576;2023-04-24T14:05:46;4.75;;;1.13;;
67904;SDS011;54709;43.614;1.576;2023-04-24T14:08:12;4.55;;;1.05;;
67904;SDS011;54709;43.614;1.576;2023-04-24T14:10:37;5.03;;;0.90;;
67904;SDS011;54709;43.614;1.576;2023-04-24T14:13:03;6.82;;;1.30;;
67904;SDS011;54709;43.614;1.576;2023-04-24T14:15:28;3.95;;;1.00;;
67904;SDS011;54709;43.614;1.576;2023-04-24T14:17:54;6.18;;;1.02;;
67904;SDS011;54709;43.614;1.576;2023-04-24T14:20:19;4.13;;;1.23;;
67904;SDS011;54709;43.614;1.576;2023-04-24T14:22:45;3.10;;;1.40;;
67904;SDS011;54709;43.614;1.576;2023-04-24T14:25:10;4.32;;;1.02;;
67904;SDS011;54709;43.614;1.576;2023-04-24T14:27:36;5.70;;;1.17;;
67904;SDS011;54709;43.614;1.576;2023-04-24T14:30:01;10.32;;;1.40;;
67904;SDS011;54709;43.614;1.576;2023-04-24T14:32:26;4.97;;;1.08;;
67904;SDS011;54709;43.614;1.576;2023-04-24T14:34:52;3.90;;;1.10;;
67904;SDS011;54709;43.614;1.576;2023-04-24T14:37:17;3.30;;;1.10;;
67904;SDS011;54709;43.614;1.576;2023-04-24T14:39:43;3.38;;;0.90;;
67904;SDS011;54709;43.614;1.576;2023-04-24T14:42:08;8.07;;;1.13;;
67904;SDS011;54709;43.614;1.576;2023-04-24T14:44:33;8.18;;;1.20;;
67904;SDS011;54709;43.614;1.576;2023-04-24T14:46:59;5.18;;;1.20;;
67904;SDS011;54709;43.614;1.576;2023-04-24T14:49:25;2.20;;;0.82;;
67904;SDS011;54709;43.614;1.576;2023-04-24T14:51:51;2.83;;;1.00;;
67904;SDS011;54709;43.614;1.576;2023-04-24T14:54:16;3.58;;;1.10;;